createdAt,value
2022-07-28T00:01:33.780Z,29.90
2022-07-28T00:04:02.711Z,30.00
2022-07-28T00:06:31.589Z,29.90
2022-07-28T00:09:00.559Z,29.90
2022-07-28T00:11:29.298Z,29.90
2022-07-28T00:13:58.025Z,29.80
2022-07-28T00:16:27.066Z,29.90
2022-07-28T00:18:55.908Z,29.90
2022-07-28T00:21:24.688Z,29.80
2022-07-28T00:23:53.589Z,29.80
2022-07-28T00:26:23.718Z,29.80
2022-07-28T00:28:52.388Z,29.70
2022-07-28T00:31:21.501Z,29.80
2022-07-28T00:33:50.508Z,29.80
2022-07-28T00:36:19.202Z,29.80
2022-07-28T00:38:53.961Z,29.70
2022-07-28T00:41:23.558Z,29.70
2022-07-28T00:43:52.828Z,29.70
2022-07-28T00:46:24.747Z,29.70
2022-07-28T00:48:57.415Z,29.70
2022-07-28T00:51:27.045Z,29.70
2022-07-28T00:53:56.295Z,29.80
2022-07-28T00:56:24.995Z,29.70
2022-07-28T00:58:53.925Z,29.70
2022-07-28T01:01:23.186Z,29.80
2022-07-28T01:03:55.985Z,29.70
2022-07-28T01:06:56.006Z,29.70
2022-07-28T01:09:45.605Z,29.60
2022-07-28T01:12:42.217Z,29.60
2022-07-28T01:15:25.969Z,29.60
2022-07-28T01:18:21.279Z,29.60
2022-07-28T01:21:04.357Z,29.60
2022-07-28T01:23:33.243Z,29.60
2022-07-28T01:26:26.997Z,29.60
2022-07-28T01:29:37.263Z,29.60
2022-07-28T01:32:11.339Z,29.60
2022-07-28T01:35:01.697Z,29.50
2022-07-28T01:37:33.236Z,29.50
2022-07-28T01:40:05.147Z,29.50
2022-07-28T01:42:38.286Z,29.40
2022-07-28T01:45:09.007Z,29.40
2022-07-28T01:47:37.685Z,29.40
2022-07-28T01:50:08.898Z,29.40
2022-07-28T01:52:39.259Z,29.30
2022-07-28T01:55:09.306Z,29.30
2022-07-28T01:57:38.177Z,29.20
2022-07-28T02:00:14.416Z,29.20
2022-07-28T02:02:44.776Z,29.20
2022-07-28T02:05:16.722Z,29.20
2022-07-28T02:07:48.055Z,29.10
2022-07-28T02:10:18.018Z,29.00
2022-07-28T02:12:48.195Z,29.00
2022-07-28T02:15:17.080Z,29.00
2022-07-28T02:17:46.748Z,29.10
2022-07-28T02:20:15.726Z,29.00
2022-07-28T02:22:44.659Z,29.00
2022-07-28T02:25:21.726Z,28.90
2022-07-28T02:28:02.486Z,28.90
2022-07-28T02:30:48.849Z,29.00
2022-07-28T02:33:58.363Z,29.00
2022-07-28T02:36:45.445Z,29.10
2022-07-28T02:39:22.815Z,29.10
2022-07-28T02:41:59.296Z,29.00
2022-07-28T02:44:31.137Z,28.90
2022-07-28T02:47:00.074Z,29.00
2022-07-28T02:49:33.355Z,28.90
2022-07-28T02:52:03.449Z,28.90
2022-07-28T02:54:33.365Z,28.90
2022-07-28T02:57:02.178Z,28.90
2022-07-28T02:59:31.266Z,28.90
2022-07-28T03:02:00.061Z,28.80
2022-07-28T03:04:47.314Z,28.80
2022-07-28T03:07:16.396Z,28.80
2022-07-28T03:09:46.775Z,28.80
2022-07-28T03:12:15.586Z,28.80
2022-07-28T03:14:44.475Z,28.80
2022-07-28T03:17:13.178Z,28.80
2022-07-28T03:19:42.136Z,28.80
2022-07-28T03:22:11.956Z,28.80
2022-07-28T03:24:48.745Z,28.80
2022-07-28T03:27:26.044Z,28.80
2022-07-28T03:30:10.056Z,28.80
2022-07-28T03:32:46.616Z,28.80
2022-07-28T03:35:17.381Z,28.80
2022-07-28T03:38:08.000Z,28.70
2022-07-28T03:40:37.931Z,28.70
2022-07-28T03:43:08.591Z,28.80
2022-07-28T03:45:40.967Z,28.70
2022-07-28T03:48:10.412Z,28.70
2022-07-28T03:50:39.119Z,28.70
2022-07-28T03:53:22.420Z,28.70
2022-07-28T03:55:51.533Z,28.60
2022-07-28T03:58:26.073Z,28.60
2022-07-28T04:00:59.013Z,28.40
2022-07-28T04:03:37.646Z,28.50
2022-07-28T04:06:13.484Z,28.50
2022-07-28T04:08:42.892Z,28.50
2022-07-28T04:11:11.791Z,28.40
2022-07-28T04:13:40.703Z,28.30
2022-07-28T04:16:09.539Z,28.40
2022-07-28T04:18:39.469Z,28.30
2022-07-28T04:21:08.628Z,28.20
2022-07-28T04:23:37.444Z,28.10
2022-07-28T04:26:06.280Z,28.00
2022-07-28T04:28:35.331Z,27.90
2022-07-28T04:31:04.221Z,27.90
2022-07-28T04:33:33.118Z,28.10
2022-07-28T04:36:02.670Z,28.00
2022-07-28T04:38:31.351Z,28.00
2022-07-28T04:41:00.000Z,27.90
2022-07-28T04:43:28.941Z,27.90
2022-07-28T04:45:57.683Z,27.90
2022-07-28T04:48:27.001Z,28.00
2022-07-28T04:50:57.701Z,28.10
2022-07-28T04:53:26.439Z,28.00
2022-07-28T04:55:57.569Z,28.00
2022-07-28T04:58:27.983Z,28.00
2022-07-28T05:00:59.928Z,27.90
2022-07-28T05:03:34.126Z,28.00
2022-07-28T05:06:05.545Z,28.10
2022-07-28T05:08:34.512Z,28.20
2022-07-28T05:11:03.153Z,28.10
2022-07-28T05:13:34.067Z,28.10
2022-07-28T05:16:03.913Z,28.20
2022-07-28T05:18:32.722Z,28.40
2022-07-28T05:21:01.480Z,28.50
2022-07-28T05:23:31.004Z,28.50
2022-07-28T05:25:59.900Z,28.60
2022-07-28T05:28:28.679Z,28.70
2022-07-28T05:30:57.671Z,28.70
2022-07-28T05:33:30.175Z,28.80
2022-07-28T05:36:01.850Z,28.80
2022-07-28T05:38:31.661Z,28.90
2022-07-28T05:41:00.551Z,28.90
2022-07-28T05:43:29.514Z,29.00
2022-07-28T05:45:58.460Z,29.10
2022-07-28T05:48:27.213Z,29.10
2022-07-28T05:50:56.262Z,29.10
2022-07-28T05:53:25.123Z,29.20
2022-07-28T05:56:00.706Z,29.20
2022-07-28T05:58:31.439Z,29.30
2022-07-28T06:01:01.787Z,29.30
2022-07-28T06:03:41.490Z,29.30
2022-07-28T06:06:14.837Z,29.30
2022-07-28T06:08:47.003Z,29.40
2022-07-28T06:11:22.004Z,29.40
2022-07-28T06:13:52.995Z,29.40
2022-07-28T06:16:23.544Z,29.40
2022-07-28T06:18:53.134Z,29.40
2022-07-28T06:21:24.635Z,29.40
2022-07-28T06:23:53.299Z,29.40
2022-07-28T06:26:23.373Z,29.50
2022-07-28T06:28:52.937Z,29.50
2022-07-28T06:31:21.560Z,29.50
2022-07-28T06:33:51.062Z,29.50
2022-07-28T06:36:19.820Z,29.50
2022-07-28T06:38:49.251Z,29.60
2022-07-28T06:41:18.312Z,29.60
2022-07-28T06:43:47.077Z,29.60
2022-07-28T06:46:18.994Z,29.60
2022-07-28T06:48:48.136Z,29.60
2022-07-28T06:51:19.471Z,29.60
2022-07-28T06:53:49.492Z,29.70
2022-07-28T06:56:21.387Z,29.70
2022-07-28T06:58:50.525Z,29.70
2022-07-28T07:01:19.283Z,29.70
2022-07-28T07:03:48.363Z,29.70
2022-07-28T07:06:17.324Z,29.70
2022-07-28T07:08:47.452Z,29.80
2022-07-28T07:11:16.473Z,29.80
2022-07-28T07:13:45.192Z,29.80
2022-07-28T07:16:13.934Z,29.80
2022-07-28T07:18:42.873Z,29.80
2022-07-28T07:21:11.732Z,29.80
2022-07-28T07:23:40.461Z,29.80
2022-07-28T07:26:09.533Z,29.80
2022-07-28T07:28:39.110Z,29.80
2022-07-28T07:31:07.947Z,29.80
2022-07-28T07:33:37.061Z,29.80
2022-07-28T07:36:06.286Z,29.80
2022-07-28T07:38:35.242Z,29.80
2022-07-28T07:41:04.552Z,29.80
2022-07-28T07:43:33.212Z,29.90
2022-07-28T07:46:01.941Z,29.80
2022-07-28T07:48:30.932Z,29.80
2022-07-28T07:50:59.707Z,29.90
2022-07-28T07:53:28.431Z,29.90
2022-07-28T07:55:57.852Z,29.90
2022-07-28T07:58:26.791Z,29.80
2022-07-28T08:00:56.231Z,29.80
2022-07-28T08:03:26.453Z,29.80
2022-07-28T08:05:57.474Z,29.90
2022-07-28T08:08:26.603Z,29.90
2022-07-28T08:10:55.285Z,29.90
2022-07-28T08:13:24.114Z,29.90
2022-07-28T08:15:53.104Z,29.90
2022-07-28T08:18:21.963Z,29.90
2022-07-28T08:20:50.722Z,29.90
2022-07-28T08:23:24.287Z,29.90
2022-07-28T08:25:56.003Z,30.00
2022-07-28T08:28:24.916Z,30.00
2022-07-28T08:30:53.787Z,30.00
2022-07-28T08:33:22.607Z,30.00
2022-07-28T08:35:51.723Z,30.00
2022-07-28T08:38:20.602Z,30.00
2022-07-28T08:40:50.902Z,30.00
2022-07-28T08:43:36.799Z,30.10
2022-07-28T08:46:06.957Z,30.00
2022-07-28T08:48:38.432Z,30.00
2022-07-28T08:51:12.163Z,30.00
2022-07-28T08:53:42.010Z,30.00
2022-07-28T08:56:16.741Z,30.00
2022-07-28T08:58:45.726Z,30.00
2022-07-28T09:01:14.423Z,30.00
2022-07-28T09:03:43.201Z,30.10
2022-07-28T09:06:12.112Z,30.10
2022-07-28T09:08:40.751Z,30.10
2022-07-28T09:11:12.684Z,30.10
2022-07-28T09:13:41.325Z,30.20
2022-07-28T09:16:10.243Z,30.20
2022-07-28T09:18:39.218Z,30.10
2022-07-28T09:21:07.952Z,30.10
2022-07-28T09:23:48.174Z,30.20
2022-07-28T09:26:18.189Z,30.10
2022-07-28T09:28:52.619Z,30.20
2022-07-28T09:31:23.284Z,30.20
2022-07-28T09:34:02.266Z,30.10
2022-07-28T09:36:39.101Z,30.20
2022-07-28T09:39:08.375Z,30.20
2022-07-28T09:41:55.648Z,30.20
2022-07-28T09:44:26.605Z,30.20
2022-07-28T09:46:56.769Z,30.20
2022-07-28T09:49:43.439Z,30.20
2022-07-28T09:52:13.770Z,30.20
2022-07-28T09:55:10.612Z,30.20
2022-07-28T09:57:42.110Z,30.20
2022-07-28T10:00:25.856Z,30.30
2022-07-28T10:02:56.897Z,30.30
2022-07-28T10:05:41.156Z,30.30
2022-07-28T10:08:10.141Z,30.30
2022-07-28T10:10:38.793Z,30.30
2022-07-28T10:13:07.611Z,30.40
2022-07-28T10:15:55.122Z,30.40
2022-07-28T10:18:23.991Z,30.30
2022-07-28T10:20:52.895Z,30.40
2022-07-28T10:23:21.675Z,30.40
2022-07-28T10:25:50.305Z,30.40
2022-07-28T10:28:19.564Z,30.40
2022-07-28T10:30:48.412Z,30.40
2022-07-28T10:33:18.551Z,30.50
2022-07-28T10:35:54.509Z,30.50
2022-07-28T10:38:25.505Z,30.50
2022-07-28T10:40:54.441Z,30.50
2022-07-28T10:43:24.202Z,30.50
2022-07-28T10:46:05.590Z,30.50
2022-07-28T10:48:39.842Z,30.60
2022-07-28T10:51:15.820Z,30.60
2022-07-28T10:53:53.105Z,30.50
2022-07-28T10:56:58.985Z,30.50
2022-07-28T10:59:45.884Z,30.60
2022-07-28T11:03:01.074Z,30.50
2022-07-28T11:05:39.845Z,30.60
2022-07-28T11:08:18.693Z,30.60
2022-07-28T11:10:56.249Z,30.70
2022-07-28T11:13:32.989Z,30.50
2022-07-28T11:16:14.385Z,30.50
2022-07-28T11:19:42.003Z,30.60
2022-07-28T11:22:28.592Z,30.60
2022-07-28T11:25:20.668Z,30.70
2022-07-28T11:27:51.120Z,30.70
2022-07-28T11:30:26.083Z,30.70
2022-07-28T11:32:59.192Z,30.70
2022-07-28T11:35:33.904Z,30.70
2022-07-28T11:38:02.567Z,30.70
2022-07-28T11:40:45.153Z,30.70
2022-07-28T11:43:36.714Z,30.70
2022-07-28T11:46:11.269Z,30.70
2022-07-28T11:48:45.329Z,30.80
2022-07-28T11:51:14.792Z,30.80
2022-07-28T11:53:48.814Z,30.80
2022-07-28T11:56:36.612Z,30.80
2022-07-28T11:59:07.091Z,30.80
2022-07-28T12:01:38.329Z,30.80
2022-07-28T12:04:13.619Z,30.80
2022-07-28T12:06:43.367Z,30.80
2022-07-28T12:09:23.589Z,30.90
2022-07-28T12:11:56.339Z,30.90
2022-07-28T12:14:29.594Z,30.80
2022-07-28T12:16:58.499Z,30.90
2022-07-28T12:19:32.919Z,30.90
2022-07-28T12:22:02.122Z,30.90
2022-07-28T12:24:45.110Z,31.00
2022-07-28T12:27:16.559Z,31.00
2022-07-28T12:29:57.102Z,31.00
2022-07-28T12:32:33.502Z,30.90
2022-07-28T12:35:03.232Z,30.90
2022-07-28T12:37:32.113Z,31.00
2022-07-28T12:40:02.775Z,31.00
2022-07-28T12:42:32.794Z,31.00
2022-07-28T12:45:07.951Z,31.00
2022-07-28T12:47:36.831Z,31.10
2022-07-28T12:50:18.061Z,31.00
2022-07-28T12:53:05.365Z,31.00
2022-07-28T12:55:34.486Z,31.10
2022-07-28T12:58:03.465Z,31.00
2022-07-28T13:00:35.588Z,31.00
2022-07-28T13:03:28.517Z,31.00
2022-07-28T13:06:03.786Z,31.00
2022-07-28T13:08:47.352Z,31.00
2022-07-28T13:11:42.018Z,31.00
2022-07-28T13:14:06.103Z,31.00
2022-07-28T13:16:34.878Z,31.00
2022-07-28T13:19:05.859Z,31.10
2022-07-28T13:21:58.347Z,31.00
2022-07-28T13:24:29.924Z,31.10
2022-07-28T13:26:59.739Z,31.10
2022-07-28T13:29:28.661Z,31.10
2022-07-28T13:31:57.355Z,31.10
2022-07-28T13:34:26.540Z,31.10
2022-07-28T13:36:57.403Z,31.10
2022-07-28T13:39:26.061Z,31.00
2022-07-28T13:41:58.344Z,31.00
2022-07-28T13:44:28.498Z,31.10
2022-07-28T13:46:58.255Z,31.10
2022-07-28T13:49:32.397Z,31.10
2022-07-28T13:52:02.050Z,31.10
2022-07-28T13:54:30.720Z,31.10
2022-07-28T13:57:12.469Z,31.10
2022-07-28T13:59:43.856Z,31.20
2022-07-28T14:02:15.710Z,31.10
2022-07-28T14:04:45.969Z,31.10
2022-07-28T14:07:21.264Z,31.10
2022-07-28T14:09:51.080Z,31.00
2022-07-28T14:12:19.709Z,31.00
2022-07-28T14:14:49.008Z,31.10
2022-07-28T14:17:44.068Z,31.00
2022-07-28T14:20:14.328Z,31.00
2022-07-28T14:22:46.922Z,31.10
2022-07-28T14:25:21.170Z,31.10
2022-07-28T14:27:52.339Z,31.10
2022-07-28T14:30:22.332Z,31.10
2022-07-28T14:32:51.001Z,31.00
2022-07-28T14:35:20.244Z,31.00
2022-07-28T14:40:39.722Z,30.90
2022-07-28T14:43:08.770Z,31.00
2022-07-28T14:45:51.358Z,31.00
2022-07-28T14:48:26.534Z,30.90
2022-07-28T14:50:57.282Z,30.80
2022-07-28T14:53:28.085Z,30.90
2022-07-28T14:55:57.321Z,30.90
2022-07-28T14:58:26.183Z,30.90
2022-07-28T15:00:56.154Z,30.90
2022-07-28T15:03:35.744Z,30.90
2022-07-28T15:06:05.072Z,30.90
2022-07-28T15:08:34.173Z,30.90
2022-07-28T15:11:02.807Z,30.90
2022-07-28T15:13:31.435Z,30.90
2022-07-28T15:16:00.763Z,30.90
2022-07-28T15:18:29.418Z,30.80
2022-07-28T15:20:58.214Z,30.80
2022-07-28T15:23:27.726Z,30.80
2022-07-28T15:25:56.430Z,30.80
2022-07-28T15:28:25.117Z,30.80
2022-07-28T15:30:54.736Z,30.80
2022-07-28T15:33:25.935Z,30.80
2022-07-28T15:35:57.553Z,30.90
2022-07-28T15:38:29.577Z,30.90
2022-07-28T15:41:01.109Z,30.90
2022-07-28T15:43:29.885Z,30.90
2022-07-28T15:45:58.694Z,30.90
2022-07-28T15:48:27.504Z,30.90
2022-07-28T15:50:56.045Z,30.90
2022-07-28T15:53:25.295Z,30.80
2022-07-28T15:55:54.330Z,30.80
2022-07-28T15:58:26.765Z,30.90
2022-07-28T16:00:55.645Z,30.90
2022-07-28T16:03:24.568Z,30.90
2022-07-28T16:05:55.084Z,30.90
2022-07-28T16:08:24.100Z,30.90
2022-07-28T16:10:54.400Z,30.90
2022-07-28T16:13:36.090Z,30.90
2022-07-28T16:16:08.548Z,30.90
2022-07-28T16:18:38.425Z,30.90
2022-07-28T16:21:07.897Z,30.90
2022-07-28T16:23:36.834Z,30.90
2022-07-28T16:26:08.312Z,30.90
2022-07-28T16:28:37.304Z,30.90
2022-07-28T16:31:06.300Z,30.90
2022-07-28T16:33:35.198Z,30.90
2022-07-28T16:36:04.410Z,30.90
2022-07-28T16:38:33.141Z,30.80
2022-07-28T16:41:01.716Z,30.80
2022-07-28T16:43:30.815Z,30.80
2022-07-28T16:45:59.572Z,30.80
2022-07-28T16:48:28.282Z,30.80
2022-07-28T16:50:58.079Z,30.80
2022-07-28T16:53:26.754Z,30.90
2022-07-28T16:55:55.484Z,30.90
2022-07-28T16:58:26.405Z,30.90
2022-07-28T17:00:55.174Z,30.90
2022-07-28T17:03:24.555Z,30.80
2022-07-28T17:05:53.894Z,30.80
2022-07-28T17:08:22.625Z,30.80
2022-07-28T17:10:51.344Z,30.80
2022-07-28T17:13:21.601Z,30.90
2022-07-28T17:15:50.390Z,30.80
2022-07-28T17:18:19.021Z,30.70
2022-07-28T17:20:48.055Z,30.60
2022-07-28T17:23:16.665Z,30.60
2022-07-28T17:26:16.201Z,30.60
2022-07-28T17:28:35.100Z,30.70
2022-07-28T17:31:03.851Z,30.70
2022-07-28T17:33:33.315Z,30.80
2022-07-28T17:36:02.385Z,30.80
2022-07-28T17:38:33.432Z,30.70
2022-07-28T17:41:04.476Z,30.70
2022-07-28T17:43:33.744Z,30.80
2022-07-28T17:46:08.283Z,30.70
2022-07-28T17:48:40.076Z,30.70
2022-07-28T17:51:08.932Z,30.80
2022-07-28T17:53:39.553Z,30.80
2022-07-28T17:56:09.171Z,30.80
2022-07-28T17:58:38.940Z,30.80
2022-07-28T18:01:12.081Z,30.80
2022-07-28T18:03:56.873Z,30.90
2022-07-28T18:06:32.411Z,30.90
2022-07-28T18:09:07.182Z,30.90
2022-07-28T18:11:56.862Z,30.90
2022-07-28T18:14:27.966Z,30.90
2022-07-28T18:16:57.114Z,30.90
2022-07-28T18:19:27.114Z,30.90
2022-07-28T18:21:56.286Z,30.80
2022-07-28T18:24:24.954Z,30.90
2022-07-28T18:26:53.871Z,30.90
2022-07-28T18:29:22.958Z,30.90
2022-07-28T18:31:52.257Z,30.90
2022-07-28T18:34:24.654Z,30.90
2022-07-28T18:36:54.245Z,30.90
2022-07-28T18:39:23.064Z,30.90
2022-07-28T18:41:56.315Z,30.90
2022-07-28T18:44:25.247Z,30.90
2022-07-28T18:46:54.066Z,30.90
2022-07-28T18:49:22.842Z,30.90
2022-07-28T18:51:53.107Z,30.90
2022-07-28T18:54:27.525Z,30.90
2022-07-28T18:56:57.338Z,30.80
2022-07-28T18:59:25.955Z,30.90
2022-07-28T19:15:45.528Z,30.80
2022-07-28T19:27:31.528Z,30.80
2022-07-28T19:30:00.433Z,30.80
2022-07-28T19:32:29.258Z,30.80
2022-07-28T19:34:58.088Z,30.80
2022-07-28T19:37:28.124Z,30.70
2022-07-28T19:39:56.774Z,30.70
2022-07-28T19:42:25.416Z,30.70
2022-07-28T19:44:56.043Z,30.70
2022-07-28T19:47:25.086Z,30.80
2022-07-28T19:49:53.941Z,30.80
2022-07-28T19:52:24.031Z,30.80
2022-07-28T19:54:53.180Z,30.70
2022-07-28T19:57:25.208Z,30.60
2022-07-28T19:59:54.022Z,30.60
2022-07-28T20:02:23.013Z,30.50
2022-07-28T20:04:52.094Z,30.30
2022-07-28T20:07:20.767Z,30.30
2022-07-28T20:09:49.402Z,30.30
2022-07-28T20:12:19.656Z,30.30
2022-07-28T20:14:48.306Z,30.40
2022-07-28T20:17:36.989Z,30.50
2022-07-28T20:20:12.080Z,30.50
2022-07-28T20:22:41.739Z,30.50
2022-07-28T20:25:11.486Z,30.50
2022-07-28T20:27:41.467Z,30.50
2022-07-28T20:30:11.275Z,30.60
2022-07-28T20:32:42.396Z,30.50
2022-07-28T20:35:11.837Z,30.60
2022-07-28T20:37:40.629Z,30.50
2022-07-28T20:40:10.096Z,30.50
2022-07-28T20:42:38.832Z,30.50
2022-07-28T20:45:08.130Z,30.50
2022-07-28T20:47:37.029Z,30.50
2022-07-28T20:50:06.790Z,30.50
2022-07-28T20:52:35.609Z,30.50
2022-07-28T20:55:04.718Z,30.50
2022-07-28T20:57:33.651Z,30.50
2022-07-28T21:00:03.653Z,30.50
2022-07-28T21:02:32.575Z,30.50
2022-07-28T21:05:01.155Z,30.50
2022-07-28T21:07:59.999Z,30.50
2022-07-28T21:10:18.876Z,30.50
2022-07-28T21:12:48.418Z,30.50
2022-07-28T21:15:16.877Z,30.50
2022-07-28T21:17:45.537Z,30.40
2022-07-28T21:20:14.625Z,30.40
2022-07-28T21:22:43.209Z,30.40
2022-07-28T21:25:11.873Z,30.30
2022-07-28T21:27:59.471Z,30.20
2022-07-28T21:30:28.431Z,30.20
2022-07-28T21:32:57.597Z,30.20
2022-07-28T21:35:26.297Z,30.20
2022-07-28T21:37:54.967Z,30.20
2022-07-28T21:40:24.407Z,30.20
2022-07-28T21:42:53.037Z,30.20
2022-07-28T21:45:21.747Z,30.20
2022-07-28T21:47:50.660Z,30.20
2022-07-28T21:50:19.357Z,30.20
2022-07-28T21:52:48.101Z,30.20
2022-07-28T21:55:17.092Z,30.20
2022-07-28T21:57:46.181Z,30.20
2022-07-28T22:00:17.418Z,30.20
2022-07-28T22:02:46.382Z,30.20
2022-07-28T22:05:15.714Z,30.20
2022-07-28T22:07:44.385Z,30.10
2022-07-28T22:10:13.294Z,30.10
2022-07-28T22:12:43.543Z,30.10
2022-07-28T22:15:12.398Z,29.90
2022-07-28T22:17:41.642Z,29.40
2022-07-28T22:20:11.359Z,29.20
2022-07-28T22:22:40.322Z,29.00
2022-07-28T22:25:10.038Z,28.90
2022-07-28T22:27:38.931Z,28.80
2022-07-28T22:30:08.511Z,28.70
2022-07-28T22:32:37.402Z,28.60
2022-07-28T22:35:07.264Z,28.60
2022-07-28T22:37:36.062Z,28.50
2022-07-28T22:40:06.132Z,28.50
2022-07-28T22:42:34.783Z,28.40
2022-07-28T22:45:04.382Z,28.30
2022-07-28T22:47:33.503Z,28.30
2022-07-28T22:50:02.174Z,28.50
2022-07-28T22:52:30.872Z,28.60
2022-07-28T22:57:45.525Z,28.60
2022-07-28T23:00:15.571Z,28.70
2022-07-28T23:02:44.331Z,28.70
2022-07-28T23:05:13.972Z,28.80
2022-07-28T23:07:50.916Z,28.80
2022-07-28T23:10:25.694Z,28.80
2022-07-28T23:12:58.391Z,28.80
2022-07-28T23:15:40.763Z,28.80
2022-07-28T23:18:11.544Z,28.80
2022-07-28T23:20:40.508Z,28.70
2022-07-28T23:23:09.776Z,28.70
2022-07-28T23:25:41.208Z,28.70
2022-07-28T23:28:09.922Z,28.70
2022-07-28T23:30:38.725Z,28.70
2022-07-28T23:33:07.886Z,28.70
2022-07-28T23:35:36.629Z,28.70
2022-07-28T23:38:05.403Z,28.60
2022-07-28T23:40:34.463Z,28.60
2022-07-28T23:43:03.115Z,28.70
2022-07-28T23:45:31.710Z,28.70
2022-07-28T23:48:00.605Z,28.60
2022-07-28T23:50:29.216Z,28.60
2022-07-28T23:53:00.384Z,28.60
2022-07-28T23:55:29.277Z,28.60
2022-07-28T23:57:57.891Z,28.70
